Time;durP1;ratioP1;P1;durP2;ratioP2;P2;SDS_P1;SDS_P2;PMS_P1;PMS_P2;Temp;Humidity;BMP_temperature;BMP_pressure;BME280_temperature;BME280_humidity;BME280_pressure;Samples;Min_cycle;Max_cycle;Signal;HPM_P1;HPM_P2
2023/07/14 00:01:18;;;;;;;8.13;5.60;;;;;;;;;;5073631;28;20052;-73
2023/07/14 00:03:44;;;;;;;15.13;6.35;;;;;;;;;;5072278;28;20095;-73
2023/07/14 00:06:12;;;;;;;10.65;5.97;;;;;;;;;;5071421;28;20029;-73
2023/07/14 00:08:39;;;;;;;12.15;5.50;;;;;;;;;;5072386;28;20025;-73
2023/07/14 00:11:15;;;;;;;9.90;5.85;;;;;;;;;;5074136;28;20433;-73
2023/07/14 00:13:41;;;;;;;12.65;5.80;;;;;;;;;;5072920;28;20052;-73
2023/07/14 00:16:14;;;;;;;14.70;6.40;;;;;;;;;;5071981;28;20027;-73
2023/07/14 00:18:40;;;;;;;15.65;6.68;;;;;;;;;;5074096;28;20027;-74
2023/07/14 00:21:07;;;;;;;14.10;6.78;;;;;;;;;;5077975;28;20059;-72
2023/07/14 00:23:33;;;;;;;12.68;6.15;;;;;;;;;;5073620;28;20074;-72
2023/07/14 00:25:59;;;;;;;15.90;6.93;;;;;;;;;;5075670;28;20024;-73
2023/07/14 00:28:25;;;;;;;18.92;7.53;;;;;;;;;;5073041;28;20108;-73
2023/07/14 00:30:51;;;;;;;12.68;6.55;;;;;;;;;;5074299;28;20085;-73
2023/07/14 00:33:18;;;;;;;12.05;6.47;;;;;;;;;;5072033;28;20021;-73
2023/07/14 00:35:45;;;;;;;11.35;5.85;;;;;;;;;;5074415;28;20040;-73
2023/07/14 00:38:11;;;;;;;11.05;6.30;;;;;;;;;;5071501;28;20028;-73
2023/07/14 00:40:38;;;;;;;14.07;6.25;;;;;;;;;;5074382;28;20308;-73
2023/07/14 00:43:05;;;;;;;15.48;6.72;;;;;;;;;;5070613;28;20470;-73
2023/07/14 00:45:31;;;;;;;12.45;5.82;;;;;;;;;;5072141;28;20059;-75
2023/07/14 00:48:04;;;;;;;11.90;6.45;;;;;;;;;;5073845;28;20099;-73
2023/07/14 00:50:42;;;;;;;11.85;6.43;;;;;;;;;;5072454;28;20056;-74
2023/07/14 00:53:31;;;;;;;12.13;6.72;;;;;;;;;;5071344;28;20028;-73
2023/07/14 00:55:57;;;;;;;12.57;6.45;;;;;;;;;;5066715;28;20033;-73
2023/07/14 00:58:24;;;;;;;14.38;6.80;;;;;;;;;;5071353;28;20039;-74
2023/07/14 01:01:24;;;;;;;20.90;6.65;;;;;;;;;;5071712;28;20587;-75
2023/07/14 01:03:55;;;;;;;14.98;6.30;;;;;;;;;;5048330;28;20621;-75
2023/07/14 01:06:24;;;;;;;9.50;5.93;;;;;;;;;;5072000;28;20033;-73
2023/07/14 01:08:53;;;;;;;13.60;6.90;;;;;;;;;;5071378;28;20482;-74
2023/07/14 01:11:21;;;;;;;12.23;6.13;;;;;;;;;;5071550;28;20043;-73
2023/07/14 01:13:47;;;;;;;13.05;6.97;;;;;;;;;;5071362;28;20448;-72
2023/07/14 01:16:15;;;;;;;10.30;6.32;;;;;;;;;;5071896;28;20048;-72
2023/07/14 01:18:41;;;;;;;15.07;6.10;;;;;;;;;;5071204;28;20032;-73
2023/07/14 01:21:08;;;;;;;9.65;5.50;;;;;;;;;;5068971;28;20091;-73
2023/07/14 01:23:40;;;;;;;14.43;6.13;;;;;;;;;;5070427;28;20074;-73
2023/07/14 01:26:24;;;;;;;14.40;6.03;;;;;;;;;;5070737;28;20028;-73
2023/07/14 01:28:51;;;;;;;11.77;5.95;;;;;;;;;;5070964;28;20421;-74
2023/07/14 01:31:21;;;;;;;13.65;5.93;;;;;;;;;;5068926;28;20036;-74
2023/07/14 01:33:47;;;;;;;12.80;6.47;;;;;;;;;;5070400;28;20040;-73
2023/07/14 01:36:13;;;;;;;13.77;6.38;;;;;;;;;;5071865;28;20377;-75
2023/07/14 01:38:40;;;;;;;11.93;6.13;;;;;;;;;;5072195;28;20051;-73
2023/07/14 01:41:07;;;;;;;10.20;5.78;;;;;;;;;;5070668;28;20100;-72
2023/07/14 01:43:36;;;;;;;10.77;5.78;;;;;;;;;;5071662;28;20021;-73
2023/07/14 01:46:06;;;;;;;13.07;5.85;;;;;;;;;;5071741;28;20104;-73
2023/07/14 01:48:35;;;;;;;12.15;5.78;;;;;;;;;;5071501;28;20024;-73
2023/07/14 01:51:04;;;;;;;11.95;5.20;;;;;;;;;;5071575;28;20480;-72
2023/07/14 01:53:36;;;;;;;18.38;5.78;;;;;;;;;;5071054;28;20028;-73
2023/07/14 01:56:04;;;;;;;11.75;5.55;;;;;;;;;;5071436;28;20336;-73
2023/07/14 01:58:33;;;;;;;12.43;5.65;;;;;;;;;;5072057;28;20031;-73
2023/07/14 02:01:00;;;;;;;7.32;5.18;;;;;;;;;;5071539;28;20099;-73
2023/07/14 02:03:52;;;;;;;8.27;4.68;;;;;;;;;;5070781;28;20057;-72
2023/07/14 02:06:18;;;;;;;8.57;5.53;;;;;;;;;;5071789;28;20536;-73
2023/07/14 02:08:48;;;;;;;15.73;5.57;;;;;;;;;;5074535;28;20029;-72
2023/07/14 02:11:18;;;;;;;9.70;4.80;;;;;;;;;;5074880;28;20052;-73
2023/07/14 02:13:45;;;;;;;10.85;5.10;;;;;;;;;;5070368;28;20025;-72
2023/07/14 02:16:14;;;;;;;13.50;5.30;;;;;;;;;;5071276;28;20454;-73
2023/07/14 02:18:41;;;;;;;12.57;4.93;;;;;;;;;;5071481;28;20451;-73
2023/07/14 02:21:07;;;;;;;11.38;4.75;;;;;;;;;;5075013;28;20027;-73
2023/07/14 02:23:33;;;;;;;11.23;4.88;;;;;;;;;;5074420;28;20086;-73
2023/07/14 02:26:15;;;;;;;11.88;5.00;;;;;;;;;;5074878;28;20119;-73
2023/07/14 02:28:41;;;;;;;12.52;5.75;;;;;;;;;;5075065;28;20035;-73
2023/07/14 02:31:22;;;;;;;13.23;5.57;;;;;;;;;;5074685;28;20032;-73
2023/07/14 02:33:49;;;;;;;11.13;5.68;;;;;;;;;;5076129;28;20028;-73
2023/07/14 02:36:43;;;;;;;10.23;4.97;;;;;;;;;;5076881;28;20056;-72
2023/07/14 02:39:10;;;;;;;9.20;4.65;;;;;;;;;;5077057;28;20037;-72
2023/07/14 02:41:41;;;;;;;9.60;5.07;;;;;;;;;;5076711;28;20044;-72
2023/07/14 02:44:08;;;;;;;12.90;4.78;;;;;;;;;;5075236;28;20024;-73
2023/07/14 02:46:43;;;;;;;14.07;5.30;;;;;;;;;;5074336;28;20397;-72
2023/07/14 02:49:10;;;;;;;15.80;5.57;;;;;;;;;;5074874;28;20078;-73
2023/07/14 02:51:36;;;;;;;10.73;5.32;;;;;;;;;;5071758;28;20028;-72
2023/07/14 02:54:03;;;;;;;11.18;5.60;;;;;;;;;;5073456;28;20554;-76
2023/07/14 02:56:29;;;;;;;8.10;5.20;;;;;;;;;;5076589;28;20064;-72
2023/07/14 02:58:55;;;;;;;10.23;5.15;;;;;;;;;;5080589;28;20031;-73
2023/07/14 03:01:21;;;;;;;11.27;5.45;;;;;;;;;;5079433;28;20504;-73
2023/07/14 03:03:48;;;;;;;9.27;5.43;;;;;;;;;;5076786;28;20053;-71
2023/07/14 03:06:15;;;;;;;9.60;5.07;;;;;;;;;;5077934;28;20036;-72
2023/07/14 03:08:41;;;;;;;10.73;5.90;;;;;;;;;;5074499;28;20021;-74
2023/07/14 03:11:07;;;;;;;14.18;4.90;;;;;;;;;;5074365;28;20414;-74
2023/07/14 03:13:35;;;;;;;11.05;5.68;;;;;;;;;;5074663;28;20074;-73
2023/07/14 03:16:00;;;;;;;13.68;6.18;;;;;;;;;;5074270;28;20416;-75
2023/07/14 03:18:26;;;;;;;13.00;6.07;;;;;;;;;;5076844;28;20023;-71
2023/07/14 03:21:00;;;;;;;12.80;6.78;;;;;;;;;;5077454;28;20029;-74
2023/07/14 03:23:26;;;;;;;12.73;6.00;;;;;;;;;;5077971;28;20021;-74
2023/07/14 03:25:53;;;;;;;9.23;5.78;;;;;;;;;;5074338;28;20064;-73
2023/07/14 03:28:19;;;;;;;13.57;7.22;;;;;;;;;;5074451;28;20028;-73
2023/07/14 03:30:45;;;;;;;9.52;6.55;;;;;;;;;;5074109;28;20386;-76
2023/07/14 03:33:11;;;;;;;16.27;7.47;;;;;;;;;;5076677;28;20036;-73
2023/07/14 03:35:37;;;;;;;14.70;6.68;;;;;;;;;;5074376;28;20035;-74
2023/07/14 03:38:04;;;;;;;11.00;6.68;;;;;;;;;;5073684;28;20024;-73
2023/07/14 03:40:30;;;;;;;12.85;7.28;;;;;;;;;;5073620;28;20123;-74
2023/07/14 03:42:56;;;;;;;10.77;6.65;;;;;;;;;;5072116;28;20028;-74
2023/07/14 03:45:22;;;;;;;11.10;7.07;;;;;;;;;;5073970;28;20048;-73
2023/07/14 03:47:49;;;;;;;15.75;7.78;;;;;;;;;;5074399;28;20089;-74
2023/07/14 03:50:15;;;;;;;19.13;9.07;;;;;;;;;;5074277;28;20477;-73
2023/07/14 03:52:44;;;;;;;13.45;7.97;;;;;;;;;;5074742;28;20035;-72
2023/07/14 03:55:11;;;;;;;16.20;8.25;;;;;;;;;;5074106;28;20024;-73
2023/07/14 03:57:37;;;;;;;13.48;7.07;;;;;;;;;;5075324;28;20020;-74
2023/07/14 04:00:13;;;;;;;18.13;7.75;;;;;;;;;;5074043;28;20069;-72
2023/07/14 04:02:39;;;;;;;12.23;6.95;;;;;;;;;;5074112;28;20012;-74
2023/07/14 04:05:09;;;;;;;13.77;7.55;;;;;;;;;;5074260;28;20021;-74
2023/07/14 04:07:35;;;;;;;11.80;7.43;;;;;;;;;;5071887;28;20028;-72
2023/07/14 04:10:02;;;;;;;13.57;7.40;;;;;;;;;;5074172;28;20104;-74
2023/07/14 04:12:28;;;;;;;16.67;8.02;;;;;;;;;;5071867;28;20043;-73
2023/07/14 04:14:54;;;;;;;14.18;7.75;;;;;;;;;;5072942;28;20111;-72
2023/07/14 04:17:20;;;;;;;12.10;8.00;;;;;;;;;;5071940;28;20101;-76
2023/07/14 04:19:46;;;;;;;14.25;7.78;;;;;;;;;;5073246;28;20467;-72
2023/07/14 04:22:12;;;;;;;12.27;7.53;;;;;;;;;;5073025;28;20031;-74
2023/07/14 04:24:38;;;;;;;18.35;9.75;;;;;;;;;;5073735;28;20032;-73
2023/07/14 04:27:04;;;;;;;18.38;9.10;;;;;;;;;;5072167;28;20024;-76
2023/07/14 04:29:30;;;;;;;18.23;9.82;;;;;;;;;;5073690;28;20466;-76
2023/07/14 04:31:56;;;;;;;15.00;8.10;;;;;;;;;;5072288;28;20452;-75
2023/07/14 04:34:22;;;;;;;15.13;8.60;;;;;;;;;;5073140;28;20099;-75
2023/07/14 04:36:49;;;;;;;39.25;9.07;;;;;;;;;;5073138;28;20025;-76
2023/07/14 04:39:15;;;;;;;15.50;8.07;;;;;;;;;;5079253;28;20028;-79
2023/07/14 04:41:41;;;;;;;17.38;8.57;;;;;;;;;;5074885;28;20036;-77
2023/07/14 04:44:13;;;;;;;15.30;9.07;;;;;;;;;;5072109;28;20144;-77
2023/07/14 04:46:39;;;;;;;17.35;8.50;;;;;;;;;;5073299;28;20095;-76
2023/07/14 04:49:05;;;;;;;19.30;11.10;;;;;;;;;;5073141;28;20027;-77
2023/07/14 04:51:35;;;;;;;16.48;9.50;;;;;;;;;;5073380;28;20032;-79
2023/07/14 04:54:01;;;;;;;16.70;9.15;;;;;;;;;;5072521;28;20028;-75
2023/07/14 04:56:27;;;;;;;22.67;10.00;;;;;;;;;;5072589;28;20021;-75
2023/07/14 04:58:53;;;;;;;17.35;9.65;;;;;;;;;;5075564;28;20104;-72
2023/07/14 05:01:20;;;;;;;17.40;10.73;;;;;;;;;;5071578;28;20020;-73
2023/07/14 05:03:46;;;;;;;17.63;8.43;;;;;;;;;;5072410;28;20031;-73
2023/07/14 05:06:12;;;;;;;17.20;10.80;;;;;;;;;;5072036;28;20100;-72
2023/07/14 05:08:38;;;;;;;18.85;11.55;;;;;;;;;;5072919;28;20393;-73
2023/07/14 05:11:04;;;;;;;20.65;9.45;;;;;;;;;;5074233;28;20075;-74
2023/07/14 05:13:30;;;;;;;16.33;9.98;;;;;;;;;;5073424;28;20117;-73
2023/07/14 05:15:59;;;;;;;16.52;9.70;;;;;;;;;;5072014;28;20075;-73
2023/07/14 05:18:26;;;;;;;15.93;9.60;;;;;;;;;;5071866;28;20016;-73
2023/07/14 05:20:52;;;;;;;19.55;10.35;;;;;;;;;;5071812;28;20378;-73
2023/07/14 05:23:18;;;;;;;15.80;10.00;;;;;;;;;;5071646;28;20024;-76
2023/07/14 05:25:45;;;;;;;19.20;11.10;;;;;;;;;;5072792;28;20091;-73
2023/07/14 05:28:11;;;;;;;16.52;10.35;;;;;;;;;;5072214;28;20032;-72
2023/07/14 05:30:37;;;;;;;22.70;12.05;;;;;;;;;;5073091;28;20062;-73
2023/07/14 05:33:04;;;;;;;16.80;9.90;;;;;;;;;;5076068;28;20651;-73
2023/07/14 05:35:30;;;;;;;16.65;9.50;;;;;;;;;;5076722;28;20078;-74
2023/07/14 05:37:56;;;;;;;18.70;10.77;;;;;;;;;;5071637;28;20025;-72
2023/07/14 05:40:23;;;;;;;21.05;10.27;;;;;;;;;;5072456;28;20047;-73
2023/07/14 05:42:49;;;;;;;22.00;10.40;;;;;;;;;;5071940;28;20028;-73
2023/07/14 05:45:15;;;;;;;18.08;10.57;;;;;;;;;;5071803;28;20029;-73
2023/07/14 05:47:43;;;;;;;17.88;9.27;;;;;;;;;;5072335;28;20024;-75
2023/07/14 05:50:09;;;;;;;29.95;17.58;;;;;;;;;;5070143;28;20031;-75
2023/07/14 05:52:35;;;;;;;22.58;12.82;;;;;;;;;;5076991;28;20024;-73
2023/07/14 05:55:03;;;;;;;23.55;11.48;;;;;;;;;;5073926;28;20029;-75
2023/07/14 05:57:29;;;;;;;17.55;10.13;;;;;;;;;;5078448;28;20378;-76
2023/07/14 05:59:55;;;;;;;18.55;9.85;;;;;;;;;;5079019;28;20352;-75
2023/07/14 06:02:21;;;;;;;21.38;10.38;;;;;;;;;;5076010;28;20059;-74
2023/07/14 06:04:48;;;;;;;20.42;10.00;;;;;;;;;;5076501;28;20028;-72
2023/07/14 06:07:15;;;;;;;16.27;9.18;;;;;;;;;;5078537;28;20056;-76
2023/07/14 06:09:41;;;;;;;21.95;10.43;;;;;;;;;;5075917;28;20110;-73
2023/07/14 06:12:08;;;;;;;24.80;10.50;;;;;;;;;;5076146;28;20528;-72
2023/07/14 06:14:35;;;;;;;18.02;9.77;;;;;;;;;;5075231;28;20385;-72
2023/07/14 06:17:02;;;;;;;28.30;10.02;;;;;;;;;;5076419;28;20032;-72
2023/07/14 06:19:29;;;;;;;20.20;10.43;;;;;;;;;;5075392;28;20069;-74
2023/07/14 06:21:55;;;;;;;19.17;10.63;;;;;;;;;;5075696;28;20440;-73
2023/07/14 06:24:22;;;;;;;18.48;10.80;;;;;;;;;;5075243;28;20126;-72
2023/07/14 06:26:48;;;;;;;28.42;13.25;;;;;;;;;;5075357;28;20021;-74
2023/07/14 06:29:14;;;;;;;23.33;10.07;;;;;;;;;;5074921;28;20031;-73
2023/07/14 06:31:40;;;;;;;19.05;10.05;;;;;;;;;;5074538;28;20021;-72
2023/07/14 06:34:06;;;;;;;24.23;11.02;;;;;;;;;;5075280;28;20107;-72
2023/07/14 06:36:32;;;;;;;16.42;9.13;;;;;;;;;;5075636;28;20025;-73
2023/07/14 06:38:59;;;;;;;17.58;8.93;;;;;;;;;;5075578;28;20089;-72
2023/07/14 06:41:25;;;;;;;15.88;8.65;;;;;;;;;;5076280;28;20034;-75
2023/07/14 06:43:51;;;;;;;19.25;9.40;;;;;;;;;;5075808;28;20382;-73
2023/07/14 06:46:17;;;;;;;14.60;8.32;;;;;;;;;;5075663;28;20029;-73
2023/07/14 06:48:45;;;;;;;22.48;9.82;;;;;;;;;;5074782;28;20017;-73
2023/07/14 06:51:12;;;;;;;18.75;9.00;;;;;;;;;;5074778;28;20059;-73
2023/07/14 06:53:38;;;;;;;20.65;9.50;;;;;;;;;;5075076;28;20093;-73
2023/07/14 06:56:04;;;;;;;20.58;9.98;;;;;;;;;;5074576;28;20028;-74
2023/07/14 06:58:30;;;;;;;21.67;9.82;;;;;;;;;;5073259;28;20039;-73
2023/07/14 07:00:56;;;;;;;20.42;9.05;;;;;;;;;;5073202;28;20017;-73
2023/07/14 07:03:22;;;;;;;20.33;9.68;;;;;;;;;;5072736;28;20024;-75
2023/07/14 07:05:50;;;;;;;27.35;10.70;;;;;;;;;;5072650;28;20497;-72
2023/07/14 07:08:16;;;;;;;18.77;10.02;;;;;;;;;;5073230;28;20028;-73
2023/07/14 07:10:43;;;;;;;22.80;10.50;;;;;;;;;;5072930;28;20025;-73
2023/07/14 07:13:10;;;;;;;22.40;10.25;;;;;;;;;;5073037;28;20067;-73
2023/07/14 07:15:36;;;;;;;20.35;9.18;;;;;;;;;;5072979;28;20172;-72
2023/07/14 07:18:03;;;;;;;19.80;10.23;;;;;;;;;;5073152;28;20107;-72
2023/07/14 07:20:29;;;;;;;18.40;8.85;;;;;;;;;;5072342;28;20020;-72
2023/07/14 07:22:55;;;;;;;47.80;21.02;;;;;;;;;;5072460;28;20017;-74
2023/07/14 07:25:21;;;;;;;17.98;8.60;;;;;;;;;;5072829;28;20370;-73
2023/07/14 07:27:48;;;;;;;30.67;11.50;;;;;;;;;;5073302;28;20021;-74
2023/07/14 07:30:15;;;;;;;28.13;11.68;;;;;;;;;;5072386;28;20100;-73
2023/07/14 07:32:42;;;;;;;17.02;7.60;;;;;;;;;;5071664;28;20025;-73
2023/07/14 07:35:09;;;;;;;19.77;7.60;;;;;;;;;;5072889;28;20020;-73
2023/07/14 07:37:35;;;;;;;65.53;28.40;;;;;;;;;;5069707;28;20112;-72
2023/07/14 07:40:02;;;;;;;18.38;9.02;;;;;;;;;;5072327;28;20025;-73
2023/07/14 07:42:28;;;;;;;24.00;10.75;;;;;;;;;;5071671;28;20017;-73
2023/07/14 07:44:55;;;;;;;18.98;8.27;;;;;;;;;;5072672;28;20386;-73
2023/07/14 07:47:21;;;;;;;21.98;9.40;;;;;;;;;;5073553;28;20025;-74
2023/07/14 07:49:46;;;;;;;55.17;22.70;;;;;;;;;;5071826;28;20050;-74
2023/07/14 07:52:13;;;;;;;17.45;6.93;;;;;;;;;;5070667;28;20029;-74
2023/07/14 07:54:42;;;;;;;19.30;6.88;;;;;;;;;;5071826;28;20432;-74
2023/07/14 07:57:08;;;;;;;10.75;6.35;;;;;;;;;;5073234;28;20028;-74
2023/07/14 07:59:35;;;;;;;13.32;6.20;;;;;;;;;;5074847;28;20082;-73
2023/07/14 08:02:01;;;;;;;13.88;5.22;;;;;;;;;;5072969;28;20039;-74
2023/07/14 08:04:27;;;;;;;14.77;5.00;;;;;;;;;;5073114;28;20025;-73
2023/07/14 08:06:53;;;;;;;14.25;6.38;;;;;;;;;;5073227;28;20025;-73
2023/07/14 08:09:19;;;;;;;15.02;5.10;;;;;;;;;;5074000;28;20047;-73
2023/07/14 08:11:45;;;;;;;10.00;4.78;;;;;;;;;;5074626;28;20105;-71
2023/07/14 08:14:14;;;;;;;13.43;4.72;;;;;;;;;;5073108;28;20097;-72
2023/07/14 08:16:40;;;;;;;12.35;4.72;;;;;;;;;;5072479;28;20024;-72
2023/07/14 08:19:06;;;;;;;15.57;4.20;;;;;;;;;;5074470;28;20031;-73
2023/07/14 08:21:32;;;;;;;10.52;4.53;;;;;;;;;;5071902;28;20021;-72
2023/07/14 08:24:00;;;;;;;11.65;4.82;;;;;;;;;;5072610;28;20025;-72
2023/07/14 08:26:26;;;;;;;15.98;4.82;;;;;;;;;;5072561;28;20024;-72
2023/07/14 08:28:52;;;;;;;10.35;4.30;;;;;;;;;;5072599;28;20017;-72
2023/07/14 08:31:18;;;;;;;9.80;3.95;;;;;;;;;;5072413;28;20032;-73
2023/07/14 08:33:44;;;;;;;7.32;3.80;;;;;;;;;;5072478;28;20080;-73
2023/07/14 08:36:11;;;;;;;13.02;4.55;;;;;;;;;;5072696;28;20017;-72
2023/07/14 08:38:38;;;;;;;13.95;4.03;;;;;;;;;;5072392;28;20023;-74
2023/07/14 08:41:04;;;;;;;8.82;3.50;;;;;;;;;;5072272;28;20025;-73
2023/07/14 08:43:49;;;;;;;12.45;4.57;;;;;;;;;;5072264;28;20029;-72
2023/07/14 08:46:18;;;;;;;9.98;3.83;;;;;;;;;;5072352;28;20017;-73
2023/07/14 08:48:53;;;;;;;12.70;3.90;;;;;;;;;;5072312;28;20048;-73
2023/07/14 08:51:21;;;;;;;11.65;3.85;;;;;;;;;;5072317;28;20029;-73
2023/07/14 08:53:50;;;;;;;9.65;4.32;;;;;;;;;;5072096;28;20138;-73
2023/07/14 08:56:18;;;;;;;13.50;4.53;;;;;;;;;;5072035;28;20029;-73
2023/07/14 08:58:45;;;;;;;11.80;4.00;;;;;;;;;;5072666;28;20012;-73
2023/07/14 09:01:19;;;;;;;12.23;4.10;;;;;;;;;;5073999;28;20031;-74
2023/07/14 09:03:46;;;;;;;9.80;3.28;;;;;;;;;;5073324;28;20024;-73
2023/07/14 09:06:15;;;;;;;10.95;3.45;;;;;;;;;;5071731;28;20021;-71
2023/07/14 09:08:41;;;;;;;11.50;3.67;;;;;;;;;;5072042;28;20481;-73
2023/07/14 09:11:15;;;;;;;12.60;4.10;;;;;;;;;;5070385;28;20039;-73
2023/07/14 09:13:49;;;;;;;8.13;3.50;;;;;;;;;;5071681;28;20078;-72
2023/07/14 09:16:17;;;;;;;9.77;3.03;;;;;;;;;;5071810;28;20027;-73
2023/07/14 09:19:02;;;;;;;9.88;3.25;;;;;;;;;;5070281;28;20028;-73
2023/07/14 09:21:28;;;;;;;9.65;3.50;;;;;;;;;;5070787;28;20021;-73
2023/07/14 09:24:12;;;;;;;9.60;3.22;;;;;;;;;;5070208;28;20024;-76
2023/07/14 09:26:51;;;;;;;5.22;3.10;;;;;;;;;;5071142;28;20020;-75
2023/07/14 09:29:23;;;;;;;10.23;3.10;;;;;;;;;;5070051;28;20017;-76
2023/07/14 09:31:59;;;;;;;9.18;3.20;;;;;;;;;;5068355;28;20210;-73
2023/07/14 09:34:29;;;;;;;6.30;2.85;;;;;;;;;;5070990;28;20077;-73
2023/07/14 09:36:56;;;;;;;6.50;3.30;;;;;;;;;;5069451;28;20036;-73
2023/07/14 09:39:26;;;;;;;9.18;3.30;;;;;;;;;;5070512;28;20031;-72
2023/07/14 09:41:53;;;;;;;8.10;3.17;;;;;;;;;;5069937;28;20017;-73
2023/07/14 09:44:20;;;;;;;7.82;2.85;;;;;;;;;;5070200;28;20494;-74
2023/07/14 09:46:49;;;;;;;11.77;4.13;;;;;;;;;;5070687;28;20429;-74
2023/07/14 09:49:34;;;;;;;7.25;3.47;;;;;;;;;;5070515;28;20036;-73
2023/07/14 09:52:11;;;;;;;7.43;2.85;;;;;;;;;;5070030;28;20110;-74
2023/07/14 09:54:50;;;;;;;7.15;2.75;;;;;;;;;;5071411;28;20074;-72
2023/07/14 09:57:17;;;;;;;10.48;2.80;;;;;;;;;;5071623;28;20029;-71
2023/07/14 10:00:14;;;;;;;8.60;3.00;;;;;;;;;;5071129;28;20029;-72
2023/07/14 10:02:40;;;;;;;9.38;2.63;;;;;;;;;;5055105;28;20505;-72
2023/07/14 10:05:27;;;;;;;8.00;2.80;;;;;;;;;;5070776;28;20093;-74
2023/07/14 10:07:53;;;;;;;6.70;2.97;;;;;;;;;;5058626;28;20127;-73
2023/07/14 10:10:24;;;;;;;8.07;2.90;;;;;;;;;;5069055;28;20544;-73
2023/07/14 10:12:51;;;;;;;7.75;2.65;;;;;;;;;;5070349;28;20032;-72
2023/07/14 10:15:30;;;;;;;11.63;2.95;;;;;;;;;;5071863;28;20029;-73
2023/07/14 10:17:56;;;;;;;6.57;2.90;;;;;;;;;;5071608;28;20021;-73
2023/07/14 10:20:23;;;;;;;7.47;2.85;;;;;;;;;;5070865;28;20124;-74
2023/07/14 10:22:52;;;;;;;5.65;2.55;;;;;;;;;;5071358;28;20021;-74
2023/07/14 10:25:18;;;;;;;4.28;2.10;;;;;;;;;;5070785;28;20028;-73
2023/07/14 10:28:05;;;;;;;11.43;3.58;;;;;;;;;;5071162;28;20028;-74
2023/07/14 10:31:04;;;;;;;7.05;2.75;;;;;;;;;;5070678;28;20089;-73
2023/07/14 10:33:48;;;;;;;7.18;2.35;;;;;;;;;;5058376;28;20047;-72
2023/07/14 10:36:17;;;;;;;9.45;2.70;;;;;;;;;;5070930;28;20439;-73
2023/07/14 10:38:46;;;;;;;6.65;2.70;;;;;;;;;;5069782;28;20070;-72
2023/07/14 10:41:14;;;;;;;9.60;2.00;;;;;;;;;;5073416;28;20025;-72
2023/07/14 10:43:48;;;;;;;7.55;3.10;;;;;;;;;;5073550;28;20052;-72
2023/07/14 10:46:14;;;;;;;;;;;;;;;;;;5076008;28;20029;-72
2023/07/14 10:48:47;;;;;;;7.43;3.75;;;;;;;;;;5075470;28;19911;-72
2023/07/14 10:51:20;;;;;;;11.30;3.50;;;;;;;;;;5074415;28;20027;-73
2023/07/14 10:53:55;;;;;;;10.93;5.38;;;;;;;;;;5075821;28;20401;-74
2023/07/14 10:56:27;;;;;;;8.60;3.00;;;;;;;;;;5075196;28;20082;-74
2023/07/14 10:58:55;;;;;;;9.80;3.17;;;;;;;;;;5075092;28;20029;-74
2023/07/14 11:01:47;;;;;;;7.03;3.35;;;;;;;;;;5074849;28;20103;-73
2023/07/14 11:04:18;;;;;;;7.68;3.17;;;;;;;;;;5074594;28;20044;-74
2023/07/14 11:06:46;;;;;;;7.07;3.42;;;;;;;;;;5074324;28;20047;-74
2023/07/14 11:09:12;;;;;;;8.13;3.10;;;;;;;;;;5074173;28;20077;-75
2023/07/14 11:11:54;;;;;;;7.07;3.00;;;;;;;;;;5073808;28;20029;-74
2023/07/14 11:14:26;;;;;;;6.43;2.72;;;;;;;;;;5074232;28;20078;-73
2023/07/14 11:17:02;;;;;;;6.78;2.92;;;;;;;;;;5074220;28;20032;-74
2023/07/14 11:19:34;;;;;;;8.25;4.32;;;;;;;;;;5074128;28;20036;-74
2023/07/14 11:22:14;;;;;;;6.85;3.30;;;;;;;;;;5072764;28;20032;-75
2023/07/14 11:24:45;;;;;;;5.78;2.70;;;;;;;;;;5074331;28;20020;-74
2023/07/14 11:27:31;;;;;;;11.35;3.25;;;;;;;;;;5074314;28;20086;-74
2023/07/14 11:29:59;;;;;;;7.90;3.03;;;;;;;;;;5074062;28;20145;-74
2023/07/14 11:32:33;;;;;;;10.52;3.50;;;;;;;;;;5073869;28;20040;-73
2023/07/14 11:35:17;;;;;;;9.48;3.20;;;;;;;;;;5073754;28;20040;-75
2023/07/14 11:38:04;;;;;;;6.82;2.85;;;;;;;;;;5073846;28;20029;-73
2023/07/14 11:40:34;;;;;;;7.30;3.08;;;;;;;;;;5069525;28;20035;-75
2023/07/14 11:43:01;;;;;;;7.25;3.08;;;;;;;;;;5072809;28;20027;-77
2023/07/14 11:45:29;;;;;;;9.15;3.00;;;;;;;;;;5074582;28;20556;-78
2023/07/14 11:47:56;;;;;;;7.93;3.97;;;;;;;;;;5073835;28;20109;-77
2023/07/14 11:50:26;;;;;;;6.55;3.30;;;;;;;;;;5073934;28;20025;-75
2023/07/14 11:53:10;;;;;;;8.95;3.17;;;;;;;;;;5073600;28;20021;-76
2023/07/14 11:55:40;;;;;;;10.20;3.08;;;;;;;;;;5074962;28;20020;-78
2023/07/14 11:58:12;;;;;;;7.80;3.20;;;;;;;;;;5074750;28;20025;-78
2023/07/14 12:00:39;;;;;;;5.97;3.00;;;;;;;;;;5075586;28;20066;-77
2023/07/14 12:03:20;;;;;;;8.63;3.38;;;;;;;;;;5072704;28;20459;-76
2023/07/14 12:06:06;;;;;;;11.57;3.10;;;;;;;;;;5073953;28;20032;-78
2023/07/14 12:08:38;;;;;;;9.88;3.50;;;;;;;;;;5074270;28;20052;-79
2023/07/14 12:11:04;;;;;;;11.60;4.13;;;;;;;;;;5077229;28;20032;-78
2023/07/14 12:13:34;;;;;;;11.27;6.07;;;;;;;;;;5075509;28;20073;-76
2023/07/14 12:16:00;;;;;;;8.52;4.00;;;;;;;;;;5072933;28;20024;-79
2023/07/14 12:18:26;;;;;;;8.80;4.57;;;;;;;;;;5076219;28;20028;-79
2023/07/14 12:21:12;;;;;;;9.65;3.80;;;;;;;;;;5075688;28;20031;-79
2023/07/14 12:23:39;;;;;;;11.45;3.38;;;;;;;;;;5072861;28;20024;-77
2023/07/14 12:26:10;;;;;;;9.27;3.40;;;;;;;;;;5073270;28;20021;-77
2023/07/14 12:28:37;;;;;;;8.82;3.45;;;;;;;;;;5073262;28;20031;-78
2023/07/14 12:31:04;;;;;;;8.35;3.35;;;;;;;;;;5073230;28;20382;-72
2023/07/14 12:33:30;;;;;;;11.27;3.90;;;;;;;;;;5072075;28;20359;-73
2023/07/14 12:35:56;;;;;;;5.78;2.58;;;;;;;;;;5072185;28;20029;-73
2023/07/14 12:38:23;;;;;;;8.38;3.25;;;;;;;;;;5071192;28;20381;-74
2023/07/14 12:40:54;;;;;;;12.88;3.80;;;;;;;;;;5070506;28;20039;-73
2023/07/14 12:43:26;;;;;;;7.65;3.63;;;;;;;;;;5071422;28;20040;-73
2023/07/14 12:45:53;;;;;;;8.27;3.30;;;;;;;;;;5072024;28;20036;-72
2023/07/14 12:48:19;;;;;;;6.75;3.13;;;;;;;;;;5075121;28;20074;-73
2023/07/14 12:50:46;;;;;;;9.38;4.97;;;;;;;;;;5074907;28;20032;-73
2023/07/14 12:53:14;;;;;;;15.07;3.80;;;;;;;;;;5076759;28;20055;-72
2023/07/14 12:55:40;;;;;;;8.68;4.22;;;;;;;;;;5075538;28;20051;-74
2023/07/14 12:58:07;;;;;;;7.53;3.75;;;;;;;;;;5075780;28;20028;-73
2023/07/14 13:00:33;;;;;;;8.48;3.63;;;;;;;;;;5074475;28;20025;-72
2023/07/14 13:02:59;;;;;;;10.43;3.75;;;;;;;;;;5060369;28;20481;-72
2023/07/14 13:05:34;;;;;;;8.35;3.13;;;;;;;;;;5080236;28;20035;-73
2023/07/14 13:08:00;;;;;;;;;;;;;;;;;;5058134;28;20087;-72
2023/07/14 13:10:27;;;;;;;13.27;4.65;;;;;;;;;;5072375;28;19905;-73
2023/07/14 13:12:55;;;;;;;10.32;4.13;;;;;;;;;;5062699;28;20498;-72
2023/07/14 13:15:21;;;;;;;7.30;3.38;;;;;;;;;;5067434;28;20032;-74
2023/07/14 13:17:50;;;;;;;10.80;3.70;;;;;;;;;;5072242;28;20025;-73
2023/07/14 13:20:19;;;;;;;8.32;4.35;;;;;;;;;;5072579;28;20089;-74
2023/07/14 13:23:03;;;;;;;10.60;3.85;;;;;;;;;;5070653;28;20032;-73
2023/07/14 13:25:29;;;;;;;10.48;3.70;;;;;;;;;;5072363;28;20032;-73
2023/07/14 13:27:55;;;;;;;12.30;4.03;;;;;;;;;;5072436;28;20039;-79
2023/07/14 13:30:30;;;;;;;15.27;3.95;;;;;;;;;;5071987;28;20115;-75
2023/07/14 13:32:59;;;;;;;9.65;3.65;;;;;;;;;;5071731;28;20051;-75
2023/07/14 13:35:27;;;;;;;9.55;3.60;;;;;;;;;;5071228;28;20095;-73
2023/07/14 13:38:07;;;;;;;9.60;4.13;;;;;;;;;;5063772;28;20363;-73
2023/07/14 13:40:37;;;;;;;9.18;3.45;;;;;;;;;;5059495;28;20025;-73
2023/07/14 13:43:03;;;;;;;8.52;3.33;;;;;;;;;;5071882;28;20025;-73
2023/07/14 13:45:36;;;;;;;8.25;3.38;;;;;;;;;;5073129;28;20099;-75
2023/07/14 13:48:02;;;;;;;8.68;3.60;;;;;;;;;;5072405;28;20024;-75
2023/07/14 13:50:28;;;;;;;7.55;3.20;;;;;;;;;;5071227;28;20032;-75
2023/07/14 13:52:54;;;;;;;7.13;3.30;;;;;;;;;;5071433;28;20044;-75
2023/07/14 13:55:22;;;;;;;8.88;3.85;;;;;;;;;;5072524;28;20579;-74
2023/07/14 13:57:48;;;;;;;9.65;3.05;;;;;;;;;;5071390;28;20013;-72
2023/07/14 14:00:24;;;;;;;9.18;3.20;;;;;;;;;;5071796;28;20028;-77
2023/07/14 14:02:58;;;;;;;9.00;3.92;;;;;;;;;;5072443;28;20122;-72
2023/07/14 14:05:27;;;;;;;8.35;3.42;;;;;;;;;;5071981;28;20025;-72
2023/07/14 14:07:53;;;;;;;11.88;3.70;;;;;;;;;;5072546;28;20246;-73
2023/07/14 14:10:24;;;;;;;12.73;3.67;;;;;;;;;;5072199;28;20028;-75
2023/07/14 14:12:51;;;;;;;11.95;3.78;;;;;;;;;;5070680;28;20404;-72
2023/07/14 14:15:18;;;;;;;10.27;4.32;;;;;;;;;;5072648;28;20048;-72
2023/07/14 14:17:46;;;;;;;8.80;3.88;;;;;;;;;;5075937;28;20017;-74
2023/07/14 14:20:18;;;;;;;8.75;3.70;;;;;;;;;;5075331;28;20023;-74
2023/07/14 14:22:44;;;;;;;12.55;4.63;;;;;;;;;;5074819;28;20474;-75
2023/07/14 14:25:16;;;;;;;10.23;4.55;;;;;;;;;;5075393;28;20445;-77
2023/07/14 14:27:42;;;;;;;9.95;4.55;;;;;;;;;;5073476;28;20031;-74
2023/07/14 14:30:09;;;;;;;13.77;4.72;;;;;;;;;;5074697;28;20032;-73
2023/07/14 14:32:37;;;;;;;9.70;4.80;;;;;;;;;;5074700;28;20490;-74
2023/07/14 14:35:12;;;;;;;11.63;4.45;;;;;;;;;;5074873;28;20056;-74
2023/07/14 14:37:38;;;;;;;14.73;5.20;;;;;;;;;;5074703;28;20020;-74
2023/07/14 14:40:04;;;;;;;12.63;5.55;;;;;;;;;;5075668;28;20026;-74
2023/07/14 14:42:30;;;;;;;12.15;5.20;;;;;;;;;;5077905;28;20114;-73
2023/07/14 14:44:56;;;;;;;16.73;6.35;;;;;;;;;;5078433;28;20493;-75